Terminal Aerodrome Forecast
Issued by NWS

Home | Current Version | Previous Version | Text Only | Print | Product List | Glossary On
Versions: 1 2 3 4 5 6 7 8 9 10 11 12 13 14 15 16
000
FTUS44 KLZK 281400 AAA
TAFADF
TAF AMD
KADF 281406Z 2814/2912 00000KT P6SM VCFG SCT250
      TEMPO 2814/2815 4SM BR
     FM281500 18008G15KT P6SM SCT250
     FM290000 16006KT P6SM SCT250 WS020/19035KT
     FM290600 18005KT P6SM BKN025 WS020/22040KT=

USA.gov is the U.S. government's official web portal to all federal, state and local government web resources and services.